sensor_id;sensor_type;location;lat;lon;timestamp;pressure;altitude;pressure_sealevel;temperature;humidity
20622;BME280;10470;42.670;23.354;2022-10-31T00:00:54;95325.88;;;15.51;100.00
20622;BME280;10470;42.670;23.354;2022-10-31T00:03:19;95318.13;;;15.41;100.00
20622;BME280;10470;42.670;23.354;2022-10-31T00:05:47;95293.47;;;15.32;100.00
20622;BME280;10470;42.670;23.354;2022-10-31T00:08:13;95323.06;;;15.37;100.00
20622;BME280;10470;42.670;23.354;2022-10-31T00:10:39;95319.06;;;15.38;100.00
20622;BME280;10470;42.670;23.354;2022-10-31T00:13:06;95320.72;;;15.44;100.00
20622;BME280;10470;42.670;23.354;2022-10-31T00:15:36;95305.81;;;15.36;100.00
20622;BME280;10470;42.670;23.354;2022-10-31T00:18:02;95310.81;;;15.38;100.00
20622;BME280;10470;42.670;23.354;2022-10-31T00:20:28;95315.56;;;15.37;100.00
20622;BME280;10470;42.670;23.354;2022-10-31T00:22:58;95320.00;;;15.35;100.00
20622;BME280;10470;42.670;23.354;2022-10-31T00:25:23;95318.94;;;15.32;100.00
20622;BME280;10470;42.670;23.354;2022-10-31T00:27:49;95301.47;;;15.20;100.00
20622;BME280;10470;42.670;23.354;2022-10-31T00:30:15;95313.16;;;15.30;100.00
20622;BME280;10470;42.670;23.354;2022-10-31T00:32:40;95306.03;;;15.23;100.00
20622;BME280;10470;42.670;23.354;2022-10-31T00:35:06;95309.06;;;15.25;100.00
20622;BME280;10470;42.670;23.354;2022-10-31T00:37:31;95319.44;;;15.31;100.00
20622;BME280;10470;42.670;23.354;2022-10-31T00:39:57;95298.25;;;15.22;100.00
20622;BME280;10470;42.670;23.354;2022-10-31T00:42:22;95315.25;;;15.35;100.00
20622;BME280;10470;42.670;23.354;2022-10-31T00:44:48;95311.34;;;15.27;100.00
20622;BME280;10470;42.670;23.354;2022-10-31T00:47:13;95314.56;;;15.25;100.00
20622;BME280;10470;42.670;23.354;2022-10-31T00:49:39;95309.72;;;15.20;100.00
20622;BME280;10470;42.670;23.354;2022-10-31T00:52:05;95297.41;;;15.06;100.00
20622;BME280;10470;42.670;23.354;2022-10-31T00:54:30;95297.72;;;15.08;100.00
20622;BME280;10470;42.670;23.354;2022-10-31T00:56:56;95305.13;;;15.17;100.00
20622;BME280;10470;42.670;23.354;2022-10-31T00:59:22;95313.66;;;15.19;100.00
20622;BME280;10470;42.670;23.354;2022-10-31T01:01:48;95309.88;;;15.17;100.00
20622;BME280;10470;42.670;23.354;2022-10-31T01:04:13;95312.88;;;15.28;100.00
20622;BME280;10470;42.670;23.354;2022-10-31T01:06:39;95317.94;;;15.20;100.00
20622;BME280;10470;42.670;23.354;2022-10-31T01:09:04;95314.59;;;15.16;100.00
20622;BME280;10470;42.670;23.354;2022-10-31T01:11:30;95316.91;;;15.18;100.00
20622;BME280;10470;42.670;23.354;2022-10-31T01:13:55;95309.88;;;15.17;100.00
20622;BME280;10470;42.670;23.354;2022-10-31T01:16:24;95318.19;;;14.98;100.00
20622;BME280;10470;42.670;23.354;2022-10-31T01:18:50;95318.94;;;14.99;100.00
20622;BME280;10470;42.670;23.354;2022-10-31T01:21:22;95308.66;;;14.75;100.00
20622;BME280;10470;42.670;23.354;2022-10-31T01:23:49;95325.66;;;14.98;100.00
20622;BME280;10470;42.670;23.354;2022-10-31T01:26:21;95316.22;;;14.90;100.00
20622;BME280;10470;42.670;23.354;2022-10-31T01:28:52;95325.53;;;14.92;100.00
20622;BME280;10470;42.670;23.354;2022-10-31T01:31:20;95341.38;;;14.88;100.00
20622;BME280;10470;42.670;23.354;2022-10-31T01:33:46;95338.25;;;14.62;100.00
20622;BME280;10470;42.670;23.354;2022-10-31T01:38:43;95335.81;;;14.36;100.00
20622;BME280;10470;42.670;23.354;2022-10-31T01:41:11;95339.31;;;14.18;100.00
20622;BME280;10470;42.670;23.354;2022-10-31T01:46:28;95339.31;;;14.18;100.00
20622;BME280;10470;42.670;23.354;2022-10-31T01:48:58;95338.88;;;14.11;100.00
20622;BME280;10470;42.670;23.354;2022-10-31T01:51:31;95339.28;;;13.63;100.00
20622;BME280;10470;42.670;23.354;2022-10-31T01:54:01;95337.03;;;13.71;100.00
20622;BME280;10470;42.670;23.354;2022-10-31T01:56:28;95340.66;;;13.77;100.00
20622;BME280;10470;42.670;23.354;2022-10-31T01:58:54;95334.09;;;13.56;100.00
20622;BME280;10470;42.670;23.354;2022-10-31T02:01:21;95328.50;;;13.69;100.00
20622;BME280;10470;42.670;23.354;2022-10-31T02:03:47;95333.53;;;13.80;100.00
20622;BME280;10470;42.670;23.354;2022-10-31T02:07:08;95325.16;;;13.92;100.00
20622;BME280;10470;42.670;23.354;2022-10-31T02:09:07;95328.34;;;13.82;100.00
20622;BME280;10470;42.670;23.354;2022-10-31T02:11:34;95316.03;;;13.68;100.00
20622;BME280;10470;42.670;23.354;2022-10-31T02:14:02;95319.69;;;13.65;100.00
20622;BME280;10470;42.670;23.354;2022-10-31T02:16:28;95312.03;;;13.41;100.00
20622;BME280;10470;42.670;23.354;2022-10-31T02:18:54;95327.84;;;13.46;100.00
20622;BME280;10470;42.670;23.354;2022-10-31T02:21:34;95322.09;;;13.63;100.00
20622;BME280;10470;42.670;23.354;2022-10-31T02:34:55;95340.66;;;13.68;100.00
20622;BME280;10470;42.670;23.354;2022-10-31T02:37:37;95339.41;;;13.50;100.00
20622;BME280;10470;42.670;23.354;2022-10-31T02:45:45;95352.78;;;13.48;100.00
20622;BME280;10470;42.670;23.354;2022-10-31T02:48:34;95357.53;;;13.57;100.00
20622;BME280;10470;42.670;23.354;2022-10-31T02:51:03;95362.69;;;13.55;100.00
20622;BME280;10470;42.670;23.354;2022-10-31T02:53:36;95345.03;;;13.56;100.00
20622;BME280;10470;42.670;23.354;2022-10-31T02:58:38;95351.59;;;13.49;100.00
20622;BME280;10470;42.670;23.354;2022-10-31T03:01:23;95358.56;;;13.41;100.00
20622;BME280;10470;42.670;23.354;2022-10-31T03:03:54;95363.13;;;13.44;100.00
20622;BME280;10470;42.670;23.354;2022-10-31T03:11:25;95354.03;;;13.25;100.00
20622;BME280;10470;42.670;23.354;2022-10-31T03:14:12;95353.69;;;13.45;100.00
20622;BME280;10470;42.670;23.354;2022-10-31T03:19:17;95358.28;;;13.58;100.00
20622;BME280;10470;42.670;23.354;2022-10-31T03:24:18;95350.03;;;13.39;100.00
20622;BME280;10470;42.670;23.354;2022-10-31T03:26:49;95356.59;;;13.42;100.00
20622;BME280;10470;42.670;23.354;2022-10-31T03:29:21;95359.31;;;13.42;100.00
20622;BME280;10470;42.670;23.354;2022-10-31T03:31:55;95365.41;;;13.46;100.00
20622;BME280;10470;42.670;23.354;2022-10-31T03:34:22;95365.13;;;13.44;100.00
20622;BME280;10470;42.670;23.354;2022-10-31T03:36:52;95363.47;;;13.24;100.00
20622;BME280;10470;42.670;23.354;2022-10-31T03:39:20;95372.66;;;13.30;100.00
20622;BME280;10470;42.670;23.354;2022-10-31T03:42:02;95380.31;;;13.45;100.00
20622;BME280;10470;42.670;23.354;2022-10-31T03:44:32;95371.63;;;13.37;100.00
20622;BME280;10470;42.670;23.354;2022-10-31T03:46:58;95372.38;;;13.38;100.00
20622;BME280;10470;42.670;23.354;2022-10-31T03:49:25;95355.28;;;13.24;100.00
20622;BME280;10470;42.670;23.354;2022-10-31T03:51:59;95390.03;;;13.37;100.00
20622;BME280;10470;42.670;23.354;2022-10-31T03:54:45;95386.53;;;13.36;100.00
20622;BME280;10470;42.670;23.354;2022-10-31T03:59:40;95375.00;;;13.10;100.00
20622;BME280;10470;42.670;23.354;2022-10-31T04:02:11;95386.69;;;13.10;100.00
20622;BME280;10470;42.670;23.354;2022-10-31T04:04:38;95386.09;;;13.16;100.00
20622;BME280;10470;42.670;23.354;2022-10-31T04:07:05;95393.28;;;12.91;100.00
20622;BME280;10470;42.670;23.354;2022-10-31T04:09:35;95399.63;;;13.10;100.00
20622;BME280;10470;42.670;23.354;2022-10-31T04:12:03;95394.16;;;12.88;100.00
20622;BME280;10470;42.670;23.354;2022-10-31T04:14:32;95394.16;;;12.88;100.00
20622;BME280;10470;42.670;23.354;2022-10-31T04:16:58;95389.50;;;12.98;100.00
20622;BME280;10470;42.670;23.354;2022-10-31T04:19:25;95409.50;;;12.85;100.00
20622;BME280;10470;42.670;23.354;2022-10-31T04:21:50;95399.19;;;12.89;100.00
20622;BME280;10470;42.670;23.354;2022-10-31T04:24:16;95391.50;;;12.97;100.00
20622;BME280;10470;42.670;23.354;2022-10-31T04:26:41;95395.09;;;12.94;100.00
20622;BME280;10470;42.670;23.354;2022-10-31T04:29:07;95400.06;;;13.08;100.00
20622;BME280;10470;42.670;23.354;2022-10-31T04:31:32;95392.50;;;12.90;100.00
20622;BME280;10470;42.670;23.354;2022-10-31T04:33:57;95393.75;;;12.99;100.00
20622;BME280;10470;42.670;23.354;2022-10-31T04:36:23;95390.00;;;12.74;100.00
20622;BME280;10470;42.670;23.354;2022-10-31T04:38:48;95389.91;;;12.87;100.00
20622;BME280;10470;42.670;23.354;2022-10-31T04:41:14;95397.34;;;12.86;100.00
20622;BME280;10470;42.670;23.354;2022-10-31T04:43:39;95402.19;;;12.60;100.00
20622;BME280;10470;42.670;23.354;2022-10-31T04:46:05;95401.44;;;12.82;100.00
20622;BME280;10470;42.670;23.354;2022-10-31T04:48:31;95403.03;;;12.70;100.00
20622;BME280;10470;42.670;23.354;2022-10-31T04:51:00;95416.69;;;12.92;100.00
20622;BME280;10470;42.670;23.354;2022-10-31T04:53:26;95416.97;;;12.94;100.00
20622;BME280;10470;42.670;23.354;2022-10-31T04:55:52;95423.25;;;12.95;100.00
20622;BME280;10470;42.670;23.354;2022-10-31T04:58:17;95421.78;;;13.12;100.00
20622;BME280;10470;42.670;23.354;2022-10-31T05:00:43;95425.19;;;12.94;100.00
20622;BME280;10470;42.670;23.354;2022-10-31T05:03:08;95423.25;;;12.73;100.00
20622;BME280;10470;42.670;23.354;2022-10-31T05:05:34;95412.31;;;12.73;100.00
20622;BME280;10470;42.670;23.354;2022-10-31T05:07:59;95425.34;;;12.90;100.00
20622;BME280;10470;42.670;23.354;2022-10-31T05:10:27;95427.22;;;13.03;100.00
20622;BME280;10470;42.670;23.354;2022-10-31T05:12:58;95416.69;;;12.92;100.00
20622;BME280;10470;42.670;23.354;2022-10-31T05:15:25;95424.63;;;12.99;100.00
20622;BME280;10470;42.670;23.354;2022-10-31T05:17:51;95430.75;;;13.12;100.00
20622;BME280;10470;42.670;23.354;2022-10-31T05:20:18;95430.59;;;13.07;100.00
20622;BME280;10470;42.670;23.354;2022-10-31T05:22:45;95436.91;;;12.95;100.00
20622;BME280;10470;42.670;23.354;2022-10-31T05:25:11;95446.31;;;13.16;100.00
20622;BME280;10470;42.670;23.354;2022-10-31T05:27:42;95442.91;;;13.02;100.00
20622;BME280;10470;42.670;23.354;2022-10-31T05:30:09;95439.69;;;13.04;100.00
20622;BME280;10470;42.670;23.354;2022-10-31T05:32:40;95445.75;;;12.99;100.00
20622;BME280;10470;42.670;23.354;2022-10-31T05:35:07;95446.50;;;12.99;100.00
20622;BME280;10470;42.670;23.354;2022-10-31T05:37:36;95445.53;;;13.15;100.00
20622;BME280;10470;42.670;23.354;2022-10-31T05:40:07;95444.34;;;12.94;100.00
20622;BME280;10470;42.670;23.354;2022-10-31T05:42:32;95449.44;;;13.05;100.00
20622;BME280;10470;42.670;23.354;2022-10-31T05:44:58;95449.44;;;13.05;100.00
20622;BME280;10470;42.670;23.354;2022-10-31T05:47:24;95453.44;;;12.91;100.00
20622;BME280;10470;42.670;23.354;2022-10-31T05:49:50;95458.53;;;12.80;100.00
20622;BME280;10470;42.670;23.354;2022-10-31T05:52:16;95460.72;;;12.85;100.00
20622;BME280;10470;42.670;23.354;2022-10-31T05:54:41;95463.63;;;12.90;100.00
20622;BME280;10470;42.670;23.354;2022-10-31T05:57:08;95455.41;;;12.90;100.00
20622;BME280;10470;42.670;23.354;2022-10-31T05:59:33;95461.00;;;13.09;100.00
20622;BME280;10470;42.670;23.354;2022-10-31T06:01:58;95455.03;;;13.01;100.00
20622;BME280;10470;42.670;23.354;2022-10-31T06:04:24;95473.78;;;13.12;100.00
20622;BME280;10470;42.670;23.354;2022-10-31T06:06:49;95474.50;;;13.03;100.00
20622;BME280;10470;42.670;23.354;2022-10-31T06:09:15;95469.78;;;13.04;100.00
20622;BME280;10470;42.670;23.354;2022-10-31T06:11:40;95469.97;;;13.31;100.00
20622;BME280;10470;42.670;23.354;2022-10-31T06:14:06;95480.22;;;13.40;100.00
20622;BME280;10470;42.670;23.354;2022-10-31T06:16:31;95485.25;;;13.42;100.00
20622;BME280;10470;42.670;23.354;2022-10-31T06:18:57;95487.56;;;13.52;100.00
20622;BME280;10470;42.670;23.354;2022-10-31T06:21:23;95489.16;;;13.63;100.00
20622;BME280;10470;42.670;23.354;2022-10-31T06:23:48;95498.38;;;13.56;100.00
20622;BME280;10470;42.670;23.354;2022-10-31T06:26:14;95504.53;;;13.69;100.00
20622;BME280;10470;42.670;23.354;2022-10-31T06:28:39;95504.09;;;13.71;100.00
20622;BME280;10470;42.670;23.354;2022-10-31T06:31:05;95514.47;;;13.76;100.00
20622;BME280;10470;42.670;23.354;2022-10-31T06:33:31;95508.25;;;13.85;100.00
20622;BME280;10470;42.670;23.354;2022-10-31T06:35:57;95505.97;;;13.83;100.00
20622;BME280;10470;42.670;23.354;2022-10-31T06:38:23;95516.16;;;13.83;100.00
20622;BME280;10470;42.670;23.354;2022-10-31T06:40:48;95499.91;;;13.88;100.00
20622;BME280;10470;42.670;23.354;2022-10-31T06:43:13;95511.63;;;13.98;100.00
20622;BME280;10470;42.670;23.354;2022-10-31T06:45:40;95513.03;;;14.03;100.00
20622;BME280;10470;42.670;23.354;2022-10-31T06:48:13;95513.22;;;14.17;100.00
20622;BME280;10470;42.670;23.354;2022-10-31T06:50:39;95509.13;;;14.22;100.00
20622;BME280;10470;42.670;23.354;2022-10-31T06:53:04;95497.22;;;14.16;100.00
20622;BME280;10470;42.670;23.354;2022-10-31T06:55:30;95515.53;;;14.28;100.00
20622;BME280;10470;42.670;23.354;2022-10-31T06:58:00;95519.50;;;14.27;100.00
20622;BME280;10470;42.670;23.354;2022-10-31T07:00:28;95518.97;;;14.60;100.00
20622;BME280;10470;42.670;23.354;2022-10-31T07:03:03;95521.41;;;14.58;100.00
20622;BME280;10470;42.670;23.354;2022-10-31T07:05:30;95513.19;;;14.58;100.00
20622;BME280;10470;42.670;23.354;2022-10-31T07:07:58;95518.06;;;14.54;100.00
20622;BME280;10470;42.670;23.354;2022-10-31T07:10:25;95518.19;;;14.50;100.00
20622;BME280;10470;42.670;23.354;2022-10-31T07:12:59;95514.53;;;14.62;100.00
20622;BME280;10470;42.670;23.354;2022-10-31T07:15:26;95523.38;;;14.76;100.00
20622;BME280;10470;42.670;23.354;2022-10-31T07:17:52;95516.38;;;14.93;100.00
20622;BME280;10470;42.670;23.354;2022-10-31T07:20:18;95507.53;;;14.98;100.00
20622;BME280;10470;42.670;23.354;2022-10-31T07:22:43;95513.19;;;15.04;100.00
20622;BME280;10470;42.670;23.354;2022-10-31T07:25:09;95509.50;;;15.07;100.00
20622;BME280;10470;42.670;23.354;2022-10-31T07:27:38;95495.66;;;15.01;100.00
20622;BME280;10470;42.670;23.354;2022-10-31T07:30:05;95491.66;;;15.12;100.00
20622;BME280;10470;42.670;23.354;2022-10-31T07:32:42;95488.63;;;15.19;100.00
20622;BME280;10470;42.670;23.354;2022-10-31T07:35:09;95493.94;;;15.32;100.00
20622;BME280;10470;42.670;23.354;2022-10-31T07:37:35;95494.94;;;15.43;100.00
20622;BME280;10470;42.670;23.354;2022-10-31T07:40:05;95504.56;;;15.48;100.00
20622;BME280;10470;42.670;23.354;2022-10-31T07:42:38;95491.94;;;15.41;100.00
20622;BME280;10470;42.670;23.354;2022-10-31T07:45:04;95495.66;;;15.71;100.00
20622;BME280;10470;42.670;23.354;2022-10-31T07:47:38;95502.41;;;15.70;100.00
20622;BME280;10470;42.670;23.354;2022-10-31T07:50:07;95503.63;;;15.51;100.00
20622;BME280;10470;42.670;23.354;2022-10-31T07:52:34;95496.03;;;15.46;100.00
20622;BME280;10470;42.670;23.354;2022-10-31T07:55:00;95475.72;;;15.43;100.00
20622;BME280;10470;42.670;23.354;2022-10-31T07:57:26;95503.13;;;15.80;100.00
20622;BME280;10470;42.670;23.354;2022-10-31T07:59:51;95495.94;;;15.83;100.00
20622;BME280;10470;42.670;23.354;2022-10-31T08:02:17;95506.34;;;16.12;100.00
20622;BME280;10470;42.670;23.354;2022-10-31T08:04:43;95494.28;;;16.09;100.00
20622;BME280;10470;42.670;23.354;2022-10-31T08:07:08;95506.75;;;16.20;100.00
20622;BME280;10470;42.670;23.354;2022-10-31T08:09:34;95519.53;;;16.32;100.00
20622;BME280;10470;42.670;23.354;2022-10-31T08:12:00;95503.50;;;16.30;100.00
20622;BME280;10470;42.670;23.354;2022-10-31T08:14:26;95504.47;;;16.18;100.00
20622;BME280;10470;42.670;23.354;2022-10-31T08:16:53;95501.06;;;16.47;100.00
20622;BME280;10470;42.670;23.354;2022-10-31T08:19:19;95508.56;;;16.47;100.00
20622;BME280;10470;42.670;23.354;2022-10-31T08:21:45;95502.84;;;16.35;100.00
20622;BME280;10470;42.670;23.354;2022-10-31T08:24:10;95512.34;;;16.34;100.00
20622;BME280;10470;42.670;23.354;2022-10-31T08:26:36;95508.13;;;16.48;100.00
20622;BME280;10470;42.670;23.354;2022-10-31T08:29:01;95514.59;;;16.60;100.00
20622;BME280;10470;42.670;23.354;2022-10-31T08:31:28;95510.16;;;16.63;100.00
20622;BME280;10470;42.670;23.354;2022-10-31T08:33:53;95507.00;;;16.55;100.00
20622;BME280;10470;42.670;23.354;2022-10-31T08:36:20;95510.00;;;16.66;100.00
20622;BME280;10470;42.670;23.354;2022-10-31T08:38:46;95510.09;;;16.96;100.00
20622;BME280;10470;42.670;23.354;2022-10-31T08:41:12;95507.41;;;16.63;100.00
20622;BME280;10470;42.670;23.354;2022-10-31T08:43:38;95500.13;;;16.74;100.00
20622;BME280;10470;42.670;23.354;2022-10-31T08:46:04;95505.19;;;16.76;100.00
20622;BME280;10470;42.670;23.354;2022-10-31T08:48:29;95501.09;;;17.10;100.00
20622;BME280;10470;42.670;23.354;2022-10-31T08:50:59;95502.16;;;17.13;100.00
20622;BME280;10470;42.670;23.354;2022-10-31T08:53:26;95501.38;;;17.27;100.00
20622;BME280;10470;42.670;23.354;2022-10-31T08:55:54;95502.75;;;17.46;100.00
20622;BME280;10470;42.670;23.354;2022-10-31T08:58:20;95510.44;;;17.72;100.00
20622;BME280;10470;42.670;23.354;2022-10-31T09:00:47;95503.88;;;17.69;100.00
20622;BME280;10470;42.670;23.354;2022-10-31T09:03:15;95507.09;;;17.68;100.00
20622;BME280;10470;42.670;23.354;2022-10-31T09:05:41;95503.09;;;17.69;100.00
20622;BME280;10470;42.670;23.354;2022-10-31T09:08:07;95498.72;;;17.77;100.00
20622;BME280;10470;42.670;23.354;2022-10-31T09:10:35;95497.19;;;18.06;100.00
20622;BME280;10470;42.670;23.354;2022-10-31T09:13:08;95494.16;;;18.04;100.00
20622;BME280;10470;42.670;23.354;2022-10-31T09:15:36;95498.09;;;18.18;100.00
20622;BME280;10470;42.670;23.354;2022-10-31T09:18:04;95497.41;;;18.23;100.00
20622;BME280;10470;42.670;23.354;2022-10-31T09:20:31;95490.31;;;18.16;100.00
20622;BME280;10470;42.670;23.354;2022-10-31T09:23:16;95494.94;;;18.25;100.00
20622;BME280;10470;42.670;23.354;2022-10-31T09:25:42;95488.13;;;18.41;100.00
20622;BME280;10470;42.670;23.354;2022-10-31T09:28:12;95495.78;;;18.72;100.00
20622;BME280;10470;42.670;23.354;2022-10-31T09:30:38;95499.31;;;18.72;100.00
20622;BME280;10470;42.670;23.354;2022-10-31T09:33:06;95492.34;;;18.97;100.00
20622;BME280;10470;42.670;23.354;2022-10-31T09:35:33;95490.75;;;18.91;100.00
20622;BME280;10470;42.670;23.354;2022-10-31T09:38:03;95493.19;;;18.83;100.00
20622;BME280;10470;42.670;23.354;2022-10-31T09:40:55;95450.25;;;18.82;100.00
20622;BME280;10470;42.670;23.354;2022-10-31T09:44:18;95490.59;;;19.20;100.00
20622;BME280;10470;42.670;23.354;2022-10-31T09:46:23;95494.44;;;19.29;100.00
20622;BME280;10470;42.670;23.354;2022-10-31T09:51:43;95494.25;;;19.64;100.00
20622;BME280;10470;42.670;23.354;2022-10-31T09:54:14;95493.06;;;19.71;100.00
20622;BME280;10470;42.670;23.354;2022-10-31T09:56:40;95490.97;;;19.65;100.00
20622;BME280;10470;42.670;23.354;2022-10-31T09:59:14;95475.28;;;19.51;100.00
20622;BME280;10470;42.670;23.354;2022-10-31T10:01:56;95480.00;;;19.71;100.00
20622;BME280;10470;42.670;23.354;2022-10-31T10:07:08;95472.38;;;20.35;100.00
20622;BME280;10470;42.670;23.354;2022-10-31T10:09:36;95466.38;;;20.42;100.00
20622;BME280;10470;42.670;23.354;2022-10-31T10:18:32;95464.81;;;21.01;95.44
20622;BME280;10470;42.670;23.354;2022-10-31T10:21:43;95456.78;;;21.03;93.97
20622;BME280;10470;42.670;23.354;2022-10-31T10:30:07;95449.03;;;22.09;82.88
20622;BME280;10470;42.670;23.354;2022-10-31T10:32:43;95443.47;;;21.92;83.08
20622;BME280;10470;42.670;23.354;2022-10-31T10:35:32;95446.31;;;22.73;82.94
20622;BME280;10470;42.670;23.354;2022-10-31T10:38:27;95432.28;;;23.06;77.87
20622;BME280;10470;42.670;23.354;2022-10-31T10:40:54;95432.34;;;22.31;76.55
20622;BME280;10470;42.670;23.354;2022-10-31T10:43:35;95432.78;;;22.46;76.42
20622;BME280;10470;42.670;23.354;2022-10-31T10:57:00;95437.47;;;23.21;69.62
20622;BME280;10470;42.670;23.354;2022-10-31T10:59:30;95437.25;;;24.15;67.72
20622;BME280;10470;42.670;23.354;2022-10-31T11:01:57;95426.84;;;24.16;66.66
20622;BME280;10470;42.670;23.354;2022-10-31T11:04:33;95436.59;;;24.04;64.16
20622;BME280;10470;42.670;23.354;2022-10-31T11:07:08;95435.78;;;23.84;65.54
20622;BME280;10470;42.670;23.354;2022-10-31T11:09:35;95428.19;;;24.96;63.28
20622;BME280;10470;42.670;23.354;2022-10-31T11:12:11;95430.22;;;24.77;62.65
20622;BME280;10470;42.670;23.354;2022-10-31T11:17:31;95418.72;;;23.93;64.36
20622;BME280;10470;42.670;23.354;2022-10-31T11:20:28;95424.19;;;24.92;62.33
20622;BME280;10470;42.670;23.354;2022-10-31T11:23:25;95411.41;;;24.15;61.66
20622;BME280;10470;42.670;23.354;2022-10-31T11:26:01;95412.97;;;25.16;60.28
20622;BME280;10470;42.670;23.354;2022-10-31T11:28:29;95412.03;;;25.08;59.79
20622;BME280;10470;42.670;23.354;2022-10-31T11:31:15;95417.22;;;26.14;58.08
20622;BME280;10470;42.670;23.354;2022-10-31T11:38:48;95404.56;;;26.13;55.32
20622;BME280;10470;42.670;23.354;2022-10-31T11:41:16;95401.00;;;26.66;55.22
20622;BME280;10470;42.670;23.354;2022-10-31T11:43:50;95392.41;;;24.81;56.73
20622;BME280;10470;42.670;23.354;2022-10-31T11:46:38;95389.09;;;25.34;56.67
20622;BME280;10470;42.670;23.354;2022-10-31T11:49:18;95398.75;;;25.65;55.00
20622;BME280;10470;42.670;23.354;2022-10-31T11:51:48;95389.81;;;26.66;53.96
20622;BME280;10470;42.670;23.354;2022-10-31T12:00:02;95387.31;;;28.07;50.90
20622;BME280;10470;42.670;23.354;2022-10-31T12:02:29;95385.19;;;28.00;49.67
20622;BME280;10470;42.670;23.354;2022-10-31T12:07:23;95382.00;;;26.98;50.75
20622;BME280;10470;42.670;23.354;2022-10-31T12:09:49;95384.88;;;26.32;52.16
20622;BME280;10470;42.670;23.354;2022-10-31T12:12:31;95378.06;;;27.15;50.73
20622;BME280;10470;42.670;23.354;2022-10-31T12:18:17;95375.66;;;27.53;49.49
20622;BME280;10470;42.670;23.354;2022-10-31T12:21:01;95378.91;;;27.65;49.08
20622;BME280;10470;42.670;23.354;2022-10-31T12:26:26;95380.75;;;27.41;48.66
20622;BME280;10470;42.670;23.354;2022-10-31T12:34:58;95366.28;;;26.95;49.19
20622;BME280;10470;42.670;23.354;2022-10-31T12:45:41;95367.06;;;28.01;48.16
20622;BME280;10470;42.670;23.354;2022-10-31T12:51:19;95384.25;;;27.55;47.53
20622;BME280;10470;42.670;23.354;2022-10-31T12:58:45;95375.31;;;28.71;46.47
20622;BME280;10470;42.670;23.354;2022-10-31T13:01:30;95379.19;;;29.05;45.89
20622;BME280;10470;42.670;23.354;2022-10-31T13:04:14;95367.53;;;28.93;45.90
20622;BME280;10470;42.670;23.354;2022-10-31T13:06:50;95382.44;;;29.24;45.18
20622;BME280;10470;42.670;23.354;2022-10-31T13:09:28;95372.28;;;27.55;47.06
20622;BME280;10470;42.670;23.354;2022-10-31T13:12:07;95375.16;;;29.44;45.76
20622;BME280;10470;42.670;23.354;2022-10-31T13:14:48;95370.63;;;29.26;45.03
20622;BME280;10470;42.670;23.354;2022-10-31T13:17:22;95378.38;;;28.16;45.66
20622;BME280;10470;42.670;23.354;2022-10-31T13:19:50;95375.34;;;28.79;46.17
20622;BME280;10470;42.670;23.354;2022-10-31T13:22:24;95380.88;;;28.64;45.36
20622;BME280;10470;42.670;23.354;2022-10-31T13:24:59;95375.50;;;28.37;46.73
20622;BME280;10470;42.670;23.354;2022-10-31T13:27:30;95364.69;;;28.41;46.01
20622;BME280;10470;42.670;23.354;2022-10-31T13:32:39;95368.25;;;28.42;44.93
20622;BME280;10470;42.670;23.354;2022-10-31T13:35:13;95369.31;;;28.31;45.50
20622;BME280;10470;42.670;23.354;2022-10-31T13:37:44;95372.81;;;29.04;44.80
20622;BME280;10470;42.670;23.354;2022-10-31T13:45:52;95376.69;;;28.86;44.44
20622;BME280;10470;42.670;23.354;2022-10-31T13:48:33;95371.34;;;28.59;44.93
20622;BME280;10470;42.670;23.354;2022-10-31T13:51:02;95377.97;;;28.85;44.74
20622;BME280;10470;42.670;23.354;2022-10-31T13:53:40;95373.13;;;28.13;44.78
20622;BME280;10470;42.670;23.354;2022-10-31T14:01:36;95372.81;;;27.11;47.88
20622;BME280;10470;42.670;23.354;2022-10-31T14:07:04;95357.47;;;26.04;49.09
20622;BME280;10470;42.670;23.354;2022-10-31T14:09:34;95367.72;;;25.56;50.38
20622;BME280;10470;42.670;23.354;2022-10-31T14:17:39;95369.03;;;24.66;53.65
20622;BME280;10470;42.670;23.354;2022-10-31T14:22:37;95371.50;;;24.50;54.18
20622;BME280;10470;42.670;23.354;2022-10-31T14:27:51;95366.84;;;24.15;56.00
20622;BME280;10470;42.670;23.354;2022-10-31T14:30:20;95367.63;;;24.34;56.17
20622;BME280;10470;42.670;23.354;2022-10-31T14:33:16;95363.50;;;24.41;56.40
20622;BME280;10470;42.670;23.354;2022-10-31T14:39:01;95367.81;;;24.17;56.37
20622;BME280;10470;42.670;23.354;2022-10-31T14:47:06;95275.69;;;23.23;57.59
20622;BME280;10470;42.670;23.354;2022-10-31T14:52:20;95362.13;;;23.25;60.04
20622;BME280;10470;42.670;23.354;2022-10-31T14:54:52;95364.25;;;23.43;59.46
20622;BME280;10470;42.670;23.354;2022-10-31T14:57:25;95362.44;;;23.76;58.59
20622;BME280;10470;42.670;23.354;2022-10-31T14:59:58;95366.53;;;23.69;58.21
20622;BME280;10470;42.670;23.354;2022-10-31T15:05:17;95363.63;;;23.56;58.28
20622;BME280;10470;42.670;23.354;2022-10-31T15:07:54;95352.19;;;23.35;58.80
20622;BME280;10470;42.670;23.354;2022-10-31T15:12:48;95365.56;;;23.37;58.78
20622;BME280;10470;42.670;23.354;2022-10-31T15:15:25;95372.53;;;23.19;59.89
20622;BME280;10470;42.670;23.354;2022-10-31T15:17:58;95367.88;;;22.97;61.19
20622;BME280;10470;42.670;23.354;2022-10-31T15:20:28;95370.31;;;22.64;64.01
20622;BME280;10470;42.670;23.354;2022-10-31T15:22:58;95373.38;;;21.80;69.71
20622;BME280;10470;42.670;23.354;2022-10-31T15:25:27;95385.25;;;21.75;73.01
20622;BME280;10470;42.670;23.354;2022-10-31T15:27:53;95380.66;;;21.94;73.21
20622;BME280;10470;42.670;23.354;2022-10-31T15:30:26;95383.97;;;21.87;74.19